Time;durP1;ratioP1;P1;durP2;ratioP2;P2;SDS_P1;SDS_P2;PMS_P1;PMS_P2;Temp;Humidity;BMP_temperature;BMP_pressure;BME280_temperature;BME280_humidity;BME280_pressure;Samples;Min_cycle;Max_cycle;Signal;HPM_P1;HPM_P2
2021/09/28 00:00:13;;;;;;;17.35;10.82;;;;;;;14.19;100.00;97211.91;5038730;28;20504;-62
2021/09/28 00:02:59;;;;;;;33.47;14.18;;;;;;;13.70;100.00;97208.22;5055158;28;20033;-62
2021/09/28 00:05:45;;;;;;;24.02;15.27;;;;;;;13.34;100.00;97202.25;5053821;28;20097;-60
2021/09/28 00:08:30;;;;;;;25.92;15.18;;;;;;;13.38;100.00;97207.81;5044329;28;20049;-63
2021/09/28 00:11:16;;;;;;;32.70;15.35;;;;;;;13.34;100.00;97213.25;5045915;28;20041;-62
2021/09/28 00:14:02;;;;;;;25.17;14.57;;;;;;;13.62;100.00;97214.78;5039502;28;20048;-62
2021/09/28 00:16:48;;;;;;;28.10;15.68;;;;;;;13.61;100.00;97215.16;5036045;28;20056;-63
2021/09/28 00:19:33;;;;;;;28.17;14.70;;;;;;;13.58;100.00;97211.97;5034204;28;20053;-62
2021/09/28 00:22:19;;;;;;;26.45;14.07;;;;;;;13.70;100.00;97218.41;5029783;28;20126;-63
2021/09/28 00:25:07;;;;;;;25.65;15.60;;;;;;;13.75;100.00;97234.59;5031709;28;20040;-60
2021/09/28 00:27:53;;;;;;;22.60;13.93;;;;;;;13.88;100.00;97235.13;5035105;28;20072;-63
2021/09/28 00:30:38;;;;;;;22.75;13.43;;;;;;;13.94;100.00;97225.41;5033481;28;20482;-62
2021/09/28 00:33:25;;;;;;;27.70;13.80;;;;;;;13.91;100.00;97234.41;5028603;28;20067;-63
2021/09/28 00:36:11;;;;;;;23.45;12.18;;;;;;;13.89;100.00;97234.78;5029462;28;20482;-62
2021/09/28 00:38:57;;;;;;;23.83;14.20;;;;;;;13.70;100.00;97234.94;5044228;28;20052;-62
2021/09/28 00:41:42;;;;;;;25.20;14.30;;;;;;;13.56;100.00;97252.06;5044162;28;20075;-63
2021/09/28 00:44:39;;;;;;;22.85;14.00;;;;;;;13.48;100.00;97251.16;5046157;28;20055;-63
2021/09/28 00:47:25;;;;;;;24.90;14.98;;;;;;;13.70;100.00;97251.44;5040718;28;20040;-62
2021/09/28 00:50:12;;;;;;;27.58;14.27;;;;;;;13.72;100.00;97255.41;5052905;28;20132;-61
2021/09/28 00:52:58;;;;;;;27.65;15.13;;;;;;;13.71;100.00;97255.78;5043545;28;20389;-61
2021/09/28 00:55:44;;;;;;;27.45;15.90;;;;;;;13.77;100.00;97257.84;5044742;28;20037;-62
2021/09/28 00:58:30;;;;;;;27.02;15.20;;;;;;;13.90;100.00;97252.91;5055876;28;20381;-64
2021/09/28 01:01:15;;;;;;;31.02;15.05;;;;;;;13.98;100.00;97258.47;5051306;28;20502;-63
2021/09/28 01:04:02;;;;;;;26.13;14.70;;;;;;;13.70;100.00;97255.00;5056788;28;20041;-63
2021/09/28 01:06:48;;;;;;;25.85;14.10;;;;;;;13.32;100.00;97261.53;5042973;28;20049;-60
2021/09/28 01:09:35;;;;;;;31.85;17.05;;;;;;;13.17;100.00;97263.25;5047236;28;20052;-62
2021/09/28 01:12:21;;;;;;;28.33;15.48;;;;;;;13.36;100.00;97265.13;5040723;28;20072;-63
2021/09/28 01:15:07;;;;;;;29.10;16.27;;;;;;;13.37;100.00;97267.50;5051041;28;20451;-62
2021/09/28 01:17:52;;;;;;;29.73;16.27;;;;;;;13.42;100.00;97273.88;5056379;28;20054;-63
2021/09/28 01:20:38;;;;;;;26.13;15.50;;;;;;;13.46;100.00;97270.00;5054107;28;20460;-62
2021/09/28 01:23:24;;;;;;;24.85;14.35;;;;;;;13.57;100.00;97264.66;5034980;28;20853;-61
2021/09/28 01:26:24;;;;;;;25.45;14.13;;;;;;;13.71;100.00;97270.34;5032658;28;20045;-62
2021/09/28 01:29:10;;;;;;;;;;;;;;;13.78;100.00;97272.41;5033823;28;20052;-60
2021/09/28 01:31:55;;;;;;;30.58;15.30;;;;;;;13.88;100.00;97277.25;5050215;28;19917;-62
2021/09/28 01:34:41;;;;;;;24.30;14.50;;;;;;;14.29;100.00;97271.81;5056720;28;20044;-62
2021/09/28 01:37:27;;;;;;;24.77;13.23;;;;;;;14.61;100.00;97271.38;5051981;28;20048;-64
2021/09/28 01:40:13;;;;;;;22.60;12.63;;;;;;;14.76;100.00;97266.00;5051331;28;20036;-64
2021/09/28 01:43:08;;;;;;;21.08;11.52;;;;;;;14.86;100.00;97266.09;5048694;28;20079;-63
2021/09/28 01:46:00;;;;;;;17.15;11.82;;;;;;;14.86;100.00;97268.06;5047697;28;20037;-63
2021/09/28 01:48:53;;;;;;;20.65;11.65;;;;;;;14.85;100.00;97277.50;5044810;28;20052;-62
2021/09/28 01:51:40;;;;;;;25.50;12.48;;;;;;;14.80;100.00;97267.63;5050806;28;20517;-62
2021/09/28 01:54:25;;;;;;;19.70;11.10;;;;;;;14.78;100.00;97275.47;5050433;28;20049;-61
2021/09/28 01:57:11;;;;;;;18.20;11.02;;;;;;;14.89;100.00;97281.06;5052420;28;20039;-62
2021/09/28 01:59:57;;;;;;;16.88;10.27;;;;;;;14.85;100.00;97285.78;5073074;28;20397;-61
2021/09/28 02:02:42;;;;;;;18.27;10.13;;;;;;;14.89;100.00;97287.41;5047578;28;20053;-61
2021/09/28 02:05:28;;;;;;;17.58;8.73;;;;;;;15.11;100.00;97295.88;5046867;28;20055;-61
2021/09/28 02:08:14;;;;;;;13.38;7.70;;;;;;;15.21;100.00;97291.59;5052096;28;20068;-61
2021/09/28 02:10:59;;;;;;;9.90;6.28;;;;;;;15.28;100.00;97297.16;5045146;28;20045;-62
2021/09/28 02:13:45;;;;;;;8.38;4.97;;;;;;;15.32;100.00;97299.94;5042577;28;20144;-63
2021/09/28 02:16:31;;;;;;;5.88;3.58;;;;;;;15.13;100.00;97298.25;5055906;28;20444;-63
2021/09/28 02:19:17;;;;;;;5.15;2.97;;;;;;;15.19;100.00;97307.75;5041418;28;20171;-61
2021/09/28 02:22:03;;;;;;;5.18;2.47;;;;;;;15.23;100.00;97317.63;5035520;28;20524;-60
2021/09/28 02:24:49;;;;;;;5.05;1.63;;;;;;;15.04;100.00;97306.84;5036415;28;20079;-60
2021/09/28 02:27:36;;;;;;;2.97;1.63;;;;;;;14.94;100.00;97310.28;5039291;28;20087;-61
2021/09/28 02:30:21;;;;;;;2.80;1.55;;;;;;;14.78;100.00;97314.06;5031070;28;20110;-61
2021/09/28 02:33:07;;;;;;;2.50;1.02;;;;;;;14.75;99.71;97311.28;5030605;28;20036;-59
2021/09/28 02:35:53;;;;;;;2.35;0.60;;;;;;;14.63;99.19;97324.16;5044746;28;20637;-60
2021/09/28 02:38:39;;;;;;;0.60;0.43;;;;;;;14.63;98.59;97320.63;5050609;28;20036;-62
2021/09/28 02:41:24;;;;;;;1.13;0.55;;;;;;;14.53;97.35;97322.06;5049727;28;20044;-63
2021/09/28 02:44:11;;;;;;;0.70;0.40;;;;;;;14.42;97.39;97319.22;5044842;28;20033;-62
2021/09/28 02:46:56;;;;;;;2.05;0.40;;;;;;;14.33;97.86;97322.25;5044105;28;20051;-59
2021/09/28 02:49:42;;;;;;;0.70;0.40;;;;;;;14.37;97.58;97324.25;5054740;28;20044;-62
2021/09/28 02:52:28;;;;;;;0.60;0.40;;;;;;;14.41;97.10;97320.38;5036291;28;20466;-62
2021/09/28 02:55:13;;;;;;;3.50;0.43;;;;;;;14.39;97.53;97311.69;5033483;28;20044;-61
2021/09/28 02:57:59;;;;;;;0.70;0.40;;;;;;;14.52;96.68;97318.50;5036429;28;20185;-62
2021/09/28 03:00:45;;;;;;;0.77;0.40;;;;;;;14.44;95.68;97311.34;5042825;28;20036;-63
2021/09/28 03:03:31;;;;;;;1.95;0.40;;;;;;;14.44;96.30;97318.81;5041658;28;20045;-63
2021/09/28 03:06:16;;;;;;;2.08;0.40;;;;;;;14.45;97.86;97315.69;5050580;28;20040;-62
2021/09/28 03:09:02;;;;;;;1.25;0.40;;;;;;;14.34;99.15;97317.53;5055410;28;20123;-60
2021/09/28 03:11:48;;;;;;;0.75;0.40;;;;;;;14.21;100.00;97322.50;5048629;28;20098;-61
2021/09/28 03:14:34;;;;;;;1.85;0.40;;;;;;;14.04;100.00;97321.09;5045853;28;20053;-63
2021/09/28 03:17:19;;;;;;;0.68;0.47;;;;;;;14.04;100.00;97323.06;5050864;28;20136;-61
2021/09/28 03:20:06;;;;;;;1.55;0.40;;;;;;;14.02;100.00;97320.69;5050434;28;20045;-62
2021/09/28 03:22:51;;;;;;;1.45;0.40;;;;;;;13.85;100.00;97324.81;5048043;28;20049;-61
2021/09/28 03:25:41;;;;;;;0.70;0.38;;;;;;;13.60;100.00;97329.97;5045272;28;20045;-63
2021/09/28 03:28:26;;;;;;;4.05;0.63;;;;;;;13.38;100.00;97337.09;5038840;28;20139;-62
2021/09/28 03:31:12;;;;;;;0.60;0.40;;;;;;;13.41;100.00;97347.34;5049242;28;20541;-61
2021/09/28 03:33:58;;;;;;;0.45;0.30;;;;;;;13.19;100.00;97349.72;5055382;28;20077;-60
2021/09/28 03:36:44;;;;;;;1.65;0.52;;;;;;;13.26;100.00;97349.06;5050894;28;20068;-62
2021/09/28 03:39:31;;;;;;;0.80;0.40;;;;;;;13.35;100.00;97344.13;5031831;28;20045;-62
2021/09/28 03:42:17;;;;;;;4.45;1.50;;;;;;;13.47;100.00;97345.09;5036575;28;20036;-62
2021/09/28 03:45:04;;;;;;;2.30;0.60;;;;;;;13.48;100.00;97350.22;5045400;28;20044;-60
2021/09/28 03:47:50;;;;;;;1.67;0.70;;;;;;;13.47;100.00;97353.34;5047649;28;20485;-62
2021/09/28 03:50:37;;;;;;;0.98;0.45;;;;;;;13.31;100.00;97359.00;5043323;28;20144;-62
2021/09/28 03:53:23;;;;;;;1.95;0.70;;;;;;;13.37;100.00;97371.28;5033418;28;20064;-62
2021/09/28 03:56:09;;;;;;;0.82;0.50;;;;;;;13.55;100.00;97371.56;5022905;28;20044;-62
2021/09/28 03:58:54;;;;;;;0.80;0.60;;;;;;;13.52;100.00;97372.28;5048317;28;20048;-62
2021/09/28 04:01:40;;;;;;;0.90;0.40;;;;;;;13.44;100.00;97367.84;5049180;28;20673;-61
2021/09/28 04:04:25;;;;;;;2.42;0.70;;;;;;;13.12;100.00;97374.38;5048060;28;20041;-61
2021/09/28 04:07:11;;;;;;;4.03;0.60;;;;;;;13.17;100.00;97374.06;5037715;28;20414;-61
2021/09/28 04:10:00;;;;;;;1.02;0.50;;;;;;;13.31;100.00;97376.31;5051183;28;20056;-63
2021/09/28 04:12:46;;;;;;;1.35;0.63;;;;;;;13.36;100.00;97377.94;5045135;28;20032;-63
2021/09/28 04:15:38;;;;;;;3.70;0.60;;;;;;;13.27;100.00;97372.66;5039171;28;20047;-62
2021/09/28 04:18:24;;;;;;;1.55;0.50;;;;;;;13.14;100.00;97369.31;5039838;28;20649;-60
2021/09/28 04:21:10;;;;;;;1.88;0.70;;;;;;;13.22;100.00;97372.16;5053936;28;20037;-59
2021/09/28 04:23:56;;;;;;;1.35;0.80;;;;;;;13.25;100.00;97366.72;5058481;28;20033;-58
2021/09/28 04:26:42;;;;;;;2.33;0.55;;;;;;;13.36;100.00;97369.69;5044016;28;20037;-59
2021/09/28 04:29:27;;;;;;;0.85;0.60;;;;;;;13.41;100.00;97380.38;5052750;28;20533;-57
2021/09/28 04:32:13;;;;;;;1.67;0.60;;;;;;;13.28;100.00;97374.25;5054498;28;20089;-65
2021/09/28 04:34:59;;;;;;;0.88;0.50;;;;;;;13.44;100.00;97387.13;5045012;28;20425;-62
2021/09/28 04:37:45;;;;;;;3.40;0.60;;;;;;;13.41;100.00;97391.38;5043483;28;20053;-62
2021/09/28 04:40:30;;;;;;;1.48;0.60;;;;;;;13.42;100.00;97392.97;5058581;28;20537;-61
2021/09/28 04:43:16;;;;;;;1.85;0.50;;;;;;;13.28;100.00;97398.22;5044784;28;20478;-59
2021/09/28 04:46:02;;;;;;;2.67;0.60;;;;;;;13.35;100.00;97404.66;5046731;28;20049;-65
2021/09/28 04:48:47;;;;;;;2.75;0.70;;;;;;;13.42;100.00;97411.47;5041089;28;20700;-63
2021/09/28 04:51:33;;;;;;;3.28;0.80;;;;;;;13.32;100.00;97413.63;5042029;28;20156;-59
2021/09/28 04:54:19;;;;;;;0.82;0.50;;;;;;;13.34;100.00;97405.84;5034121;28;20501;-63
2021/09/28 04:57:05;;;;;;;1.73;0.70;;;;;;;13.36;100.00;97406.25;5033983;28;20102;-61
2021/09/28 04:59:51;;;;;;;0.88;0.60;;;;;;;13.41;100.00;97402.38;5040426;28;20045;-60
2021/09/28 05:02:37;;;;;;;5.57;1.10;;;;;;;13.43;100.00;97394.56;5043823;28;20044;-61
2021/09/28 05:05:23;;;;;;;3.40;0.93;;;;;;;13.44;100.00;97400.88;5038821;28;20049;-59
2021/09/28 05:08:09;;;;;;;1.65;0.70;;;;;;;13.32;100.00;97404.59;5050488;28;20094;-62
2021/09/28 05:10:55;;;;;;;1.40;0.60;;;;;;;13.31;100.00;97403.03;5052386;28;20048;-59
2021/09/28 05:13:41;;;;;;;0.80;0.43;;;;;;;13.25;100.00;97407.97;5052349;28;20056;-60
2021/09/28 05:16:27;;;;;;;0.85;0.50;;;;;;;13.13;100.00;97408.97;5036478;28;20052;-62
2021/09/28 05:19:12;;;;;;;2.58;1.13;;;;;;;12.98;100.00;97399.69;5034567;28;20464;-59
2021/09/28 05:21:58;;;;;;;2.38;1.02;;;;;;;12.93;100.00;97402.72;5035694;28;20047;-63
2021/09/28 05:24:44;;;;;;;1.48;0.70;;;;;;;13.04;100.00;97404.88;5057766;28;20535;-61
2021/09/28 05:27:29;;;;;;;2.55;0.90;;;;;;;13.05;100.00;97404.50;5040955;28;20060;-62
2021/09/28 05:30:15;;;;;;;0.98;0.60;;;;;;;13.05;100.00;97406.47;5032725;28;20041;-63
2021/09/28 05:33:01;;;;;;;3.35;0.90;;;;;;;13.03;100.00;97403.28;5037684;28;20140;-61
2021/09/28 05:35:47;;;;;;;1.42;0.80;;;;;;;13.07;100.00;97407.69;5021307;28;20032;-61
2021/09/28 05:38:33;;;;;;;1.83;0.80;;;;;;;13.19;100.00;97410.25;5044079;28;20044;-58
2021/09/28 05:41:19;;;;;;;1.05;0.60;;;;;;;13.18;100.00;97416.09;5027919;28;20098;-59
2021/09/28 05:44:05;;;;;;;1.95;0.75;;;;;;;13.24;100.00;97420.16;5025399;28;20084;-60
2021/09/28 05:46:51;;;;;;;4.75;0.70;;;;;;;13.34;100.00;97422.34;5029179;28;20052;-59
2021/09/28 05:49:38;;;;;;;2.00;0.70;;;;;;;13.46;100.00;97421.34;5052026;28;20082;-60
2021/09/28 05:52:24;;;;;;;1.70;0.80;;;;;;;13.59;100.00;97421.94;5051569;28;20048;-56
2021/09/28 05:55:10;;;;;;;1.20;0.70;;;;;;;13.47;100.00;97416.63;5048687;28;20044;-59
2021/09/28 05:57:56;;;;;;;1.42;0.70;;;;;;;13.45;100.00;97413.44;5048755;28;20040;-59
2021/09/28 06:00:41;;;;;;;3.00;0.80;;;;;;;13.38;100.00;97419.66;5055436;28;20037;-62
2021/09/28 06:03:27;;;;;;;2.53;0.85;;;;;;;13.48;100.00;97423.72;5050477;28;20041;-61
2021/09/28 06:06:13;;;;;;;3.28;1.00;;;;;;;13.42;100.00;97419.72;5039216;28;20072;-62
2021/09/28 06:08:59;;;;;;;1.85;0.65;;;;;;;13.19;100.00;97417.72;5044713;28;20074;-59
2021/09/28 06:11:45;;;;;;;6.25;0.88;;;;;;;13.06;100.00;97413.56;5042755;28;20071;-60
2021/09/28 06:14:32;;;;;;;2.65;1.02;;;;;;;13.15;100.00;97411.38;5046720;28;20078;-60
2021/09/28 06:17:17;;;;;;;2.20;1.00;;;;;;;13.22;100.00;97411.50;5022806;28;20040;-61
2021/09/28 06:20:05;;;;;;;2.72;1.17;;;;;;;13.45;100.00;97399.69;5034335;28;20094;-64
2021/09/28 06:22:50;;;;;;;3.38;0.90;;;;;;;13.56;100.00;97400.69;5034603;28;20071;-61
2021/09/28 06:25:36;;;;;;;2.92;0.70;;;;;;;13.77;100.00;97403.75;5039756;28;20041;-62
2021/09/28 06:28:22;;;;;;;3.35;1.00;;;;;;;13.76;100.00;97401.38;5034508;28;20305;-61
2021/09/28 06:31:08;;;;;;;1.00;0.73;;;;;;;13.79;100.00;97402.59;5030626;28;20036;-62
2021/09/28 06:33:53;;;;;;;2.70;1.33;;;;;;;13.72;100.00;97406.00;5022461;28;20056;-59
2021/09/28 06:36:42;;;;;;;3.17;0.90;;;;;;;13.77;100.00;97405.69;5037881;28;20041;-59
2021/09/28 06:39:28;;;;;;;4.55;1.00;;;;;;;13.81;100.00;97403.81;5033134;28;20133;-62
2021/09/28 06:42:13;;;;;;;5.05;0.80;;;;;;;13.87;99.88;97407.03;5033566;28;20464;-61
2021/09/28 06:44:59;;;;;;;3.28;0.85;;;;;;;13.91;99.63;97405.13;5038054;28;20041;-60
2021/09/28 06:47:45;;;;;;;2.03;0.70;;;;;;;13.91;100.00;97399.63;5036382;28;20044;-62
2021/09/28 06:50:31;;;;;;;3.35;1.00;;;;;;;14.05;99.25;97405.31;5035382;28;20080;-63
2021/09/28 06:53:16;;;;;;;1.50;0.60;;;;;;;14.14;98.28;97405.06;5030690;28;20513;-61
2021/09/28 06:56:02;;;;;;;1.48;0.80;;;;;;;14.46;95.52;97405.47;5034619;28;20533;-63
2021/09/28 06:58:48;;;;;;;6.85;1.95;;;;;;;14.98;92.88;97393.84;5036925;28;20592;-63
2021/09/28 07:01:35;;;;;;;1.00;0.60;;;;;;;15.27;86.79;97390.19;5035693;28;20052;-59
2021/09/28 07:04:21;;;;;;;2.30;0.90;;;;;;;15.34;89.28;97391.44;5031584;28;20593;-59
2021/09/28 07:07:06;;;;;;;7.60;1.10;;;;;;;15.33;88.17;97387.09;5011068;28;20041;-57
2021/09/28 07:09:52;;;;;;;1.60;0.73;;;;;;;15.56;85.13;97379.41;5031718;28;20039;-62
2021/09/28 07:12:38;;;;;;;4.15;1.52;;;;;;;15.07;89.77;97378.59;5055316;28;20109;-61
2021/09/28 07:15:23;;;;;;;6.53;1.00;;;;;;;15.05;88.15;97377.38;5050972;28;20140;-64
2021/09/28 07:18:11;;;;;;;1.50;0.60;;;;;;;13.68;93.25;97372.13;5039805;28;20041;-61
2021/09/28 07:20:57;;;;;;;3.10;0.85;;;;;;;13.34;97.96;97374.75;5045263;28;20511;-61
2021/09/28 07:23:43;;;;;;;5.00;1.40;;;;;;;13.19;95.86;97369.00;5036978;28;20049;-60
2021/09/28 07:26:28;;;;;;;1.55;0.70;;;;;;;13.25;97.92;97366.72;5049696;28;20132;-60
2021/09/28 07:29:14;;;;;;;4.38;0.90;;;;;;;13.37;96.84;97368.53;5033773;28;20182;-63
2021/09/28 07:32:00;;;;;;;3.53;1.77;;;;;;;13.36;97.50;97364.19;5036883;28;20041;-61
2021/09/28 07:34:45;;;;;;;5.38;1.08;;;;;;;14.82;89.10;97360.97;5034882;28;20052;-58
2021/09/28 07:37:31;;;;;;;2.08;0.65;;;;;;;15.19;85.36;97360.94;5042304;28;20055;-60
2021/09/28 07:40:18;;;;;;;2.22;0.70;;;;;;;15.20;88.47;97359.78;5035341;28;20099;-61
2021/09/28 07:43:04;;;;;;;2.97;0.70;;;;;;;16.07;81.07;97361.19;5041841;28;20158;-65
2021/09/28 07:45:49;;;;;;;6.53;0.98;;;;;;;15.48;86.67;97358.41;5037891;28;20045;-59
2021/09/28 07:48:35;;;;;;;4.47;1.08;;;;;;;17.07;79.57;97362.72;5034712;28;20072;-62
2021/09/28 07:51:21;;;;;;;5.32;0.95;;;;;;;15.48;84.58;97359.22;5014435;28;20498;-60
2021/09/28 07:54:06;;;;;;;4.82;0.90;;;;;;;15.13;83.73;97364.47;5035036;28;20083;-63
2021/09/28 07:56:52;;;;;;;5.40;0.70;;;;;;;15.01;83.92;97362.75;5041054;28;20095;-56
2021/09/28 07:59:38;;;;;;;3.53;0.93;;;;;;;15.03;82.48;97360.41;5038224;28;20152;-61
2021/09/28 08:02:24;;;;;;;3.00;0.77;;;;;;;15.10;83.04;97369.53;5034199;28;20037;-62
2021/09/28 08:05:11;;;;;;;2.85;1.10;;;;;;;15.22;81.50;97364.94;5034073;28;20041;-64
2021/09/28 08:07:57;;;;;;;6.25;1.25;;;;;;;15.24;81.44;97362.56;5037647;28;20582;-64
2021/09/28 08:10:43;;;;;;;6.45;1.10;;;;;;;15.23;81.39;97345.22;5038842;28;20049;-62
2021/09/28 08:13:28;;;;;;;3.72;0.60;;;;;;;15.30;81.52;97350.00;5036457;28;20122;-60
2021/09/28 08:16:14;;;;;;;2.13;0.88;;;;;;;17.44;73.72;97354.03;5033104;28;20110;-64
2021/09/28 08:19:01;;;;;;;2.38;0.82;;;;;;;16.21;77.53;97347.44;5038489;28;20446;-60
2021/09/28 08:21:46;;;;;;;2.55;0.88;;;;;;;16.85;76.65;97346.09;5038657;28;20037;-60
2021/09/28 08:24:36;;;;;;;1.88;0.93;;;;;;;16.41;77.89;97353.44;5036192;28;20051;-62
2021/09/28 08:30:26;;;;;;;3.47;0.85;;;;;;;17.67;70.88;97345.31;5033101;28;20040;-63
2021/09/28 08:33:12;;;;;;;3.85;0.80;;;;;;;15.98;74.08;97346.94;5033239;28;20037;-63
2021/09/28 08:35:58;;;;;;;4.60;1.02;;;;;;;15.52;77.43;97341.88;5040245;28;20538;-60
2021/09/28 08:38:43;;;;;;;3.85;1.13;;;;;;;16.31;73.25;97336.81;5043497;28;20204;-61
2021/09/28 08:41:29;;;;;;;3.90;0.90;;;;;;;15.61;76.46;97347.84;5043453;28;20541;-60
2021/09/28 08:44:15;;;;;;;4.95;0.90;;;;;;;15.39;75.67;97342.19;5033811;28;20881;-62
2021/09/28 08:47:01;;;;;;;1.95;0.90;;;;;;;15.14;78.33;97339.22;5039164;28;20041;-57
2021/09/28 08:49:47;;;;;;;3.17;0.85;;;;;;;15.43;75.73;97334.75;5038799;28;20127;-58
2021/09/28 08:52:37;;;;;;;4.10;0.80;;;;;;;15.53;74.70;97341.50;5037705;28;20037;-60
2021/09/28 08:55:24;;;;;;;2.42;0.63;;;;;;;15.28;75.92;97342.09;5032714;28;20716;-58
2021/09/28 08:58:16;;;;;;;2.13;0.85;;;;;;;15.27;78.02;97342.50;5033585;28;20040;-59
2021/09/28 09:01:06;;;;;;;2.90;0.70;;;;;;;15.24;76.23;97333.00;5038665;28;20067;-65
2021/09/28 09:03:52;;;;;;;2.25;0.88;;;;;;;15.05;77.82;97327.72;5036304;28;20041;-58
2021/09/28 09:06:38;;;;;;;3.63;1.00;;;;;;;15.08;80.90;97338.00;5036364;28;20059;-60
2021/09/28 09:09:23;;;;;;;1.00;0.68;;;;;;;14.84;81.62;97333.84;5033327;28;20978;-59
2021/09/28 09:12:09;;;;;;;2.33;0.80;;;;;;;15.04;81.20;97320.63;5027836;28;20775;-60
2021/09/28 09:15:21;;;;;;;2.97;0.80;;;;;;;15.26;81.21;97316.84;5035553;28;20139;-62
2021/09/28 09:18:08;;;;;;;6.30;0.70;;;;;;;15.31;80.94;97323.22;5023036;28;20539;-62
2021/09/28 09:20:58;;;;;;;1.52;0.60;;;;;;;15.38;80.33;97309.47;5039688;28;20036;-63
2021/09/28 09:23:50;;;;;;;6.85;1.13;;;;;;;15.43;80.13;97323.69;5037258;28;20041;-59
2021/09/28 09:26:37;;;;;;;3.20;1.00;;;;;;;15.68;78.75;97315.59;5035782;28;20060;-58
2021/09/28 09:29:23;;;;;;;3.08;0.75;;;;;;;15.67;79.41;97307.69;5031432;28;20055;-59
2021/09/28 09:32:10;;;;;;;2.20;0.80;;;;;;;15.44;80.33;97308.72;5015773;28;20041;-60
2021/09/28 09:34:56;;;;;;;2.95;0.90;;;;;;;16.48;75.75;97300.16;5037710;28;20041;-58
2021/09/28 09:37:42;;;;;;;3.97;1.10;;;;;;;16.00;76.58;97301.16;5036563;28;20037;-62
2021/09/28 09:40:34;;;;;;;2.88;0.90;;;;;;;15.83;76.14;97301.88;5028411;28;20785;-61
2021/09/28 09:43:31;;;;;;;3.53;0.98;;;;;;;16.64;73.20;97297.03;5032063;28;20440;-58
2021/09/28 09:46:20;;;;;;;3.65;1.10;;;;;;;16.10;75.38;97283.06;5032017;28;20037;-59
2021/09/28 09:49:09;;;;;;;5.88;1.52;;;;;;;16.80;75.19;97289.16;5032190;28;20049;-59
2021/09/28 09:52:03;;;;;;;2.97;0.90;;;;;;;17.03;73.17;97279.69;5037317;28;20052;-54
2021/09/28 09:54:51;;;;;;;4.00;0.88;;;;;;;17.12;69.85;97282.06;5035234;28;20041;-61
2021/09/28 09:57:39;;;;;;;3.50;1.00;;;;;;;17.12;71.50;97277.31;5036213;28;20051;-60
2021/09/28 10:00:25;;;;;;;3.08;0.80;;;;;;;17.66;68.21;97268.94;5031034;28;20040;-61
2021/09/28 10:03:11;;;;;;;2.65;0.80;;;;;;;17.87;67.25;97281.97;5028673;28;20098;-59
2021/09/28 10:05:57;;;;;;;2.83;0.90;;;;;;;17.54;67.49;97274.94;5023096;28;20044;-60
2021/09/28 10:08:43;;;;;;;4.05;1.48;;;;;;;16.65;71.06;97257.13;5037204;28;20041;-63
2021/09/28 10:11:39;;;;;;;4.85;0.95;;;;;;;16.51;73.08;97262.63;5033067;28;20095;-63
2021/09/28 10:14:31;;;;;;;6.78;1.30;;;;;;;16.46;73.67;97263.81;5031453;28;20407;-62
2021/09/28 10:17:19;;;;;;;3.63;0.93;;;;;;;16.48;75.50;97260.66;5028717;28;20414;-62
2021/09/28 10:22:54;;;;;;;4.57;1.08;;;;;;;16.41;74.90;97261.44;5038107;28;20052;-60
2021/09/28 10:25:44;;;;;;;3.63;1.20;;;;;;;15.89;76.23;97267.19;5018440;28;20566;-63
2021/09/28 10:28:31;;;;;;;5.00;1.20;;;;;;;15.98;76.90;97264.84;5015427;28;20041;-62
2021/09/28 10:31:29;;;;;;;9.57;2.00;;;;;;;16.27;75.07;97258.63;5007656;28;20103;-61
2021/09/28 10:34:16;;;;;;;5.50;1.38;;;;;;;16.16;76.09;97247.56;5019239;28;20041;-62
2021/09/28 10:37:02;;;;;;;6.18;1.20;;;;;;;17.04;72.77;97250.84;5029277;28;20057;-61
2021/09/28 10:39:47;;;;;;;4.80;1.67;;;;;;;16.55;73.99;97250.41;5022528;28;20136;-62
2021/09/28 10:42:52;;;;;;;4.88;1.23;;;;;;;16.05;76.42;97244.75;5019604;28;20103;-62
2021/09/28 10:45:38;;;;;;;3.60;1.17;;;;;;;16.36;75.52;97248.00;5018407;28;20048;-63
2021/09/28 10:48:24;;;;;;;3.88;1.58;;;;;;;15.85;75.57;97253.34;5030034;28;20240;-63
2021/09/28 10:51:21;;;;;;;3.28;1.20;;;;;;;16.65;73.18;97236.97;5037277;28;20049;-64
2021/09/28 10:54:07;;;;;;;3.92;1.48;;;;;;;16.63;73.78;97242.91;5020232;28;20068;-64
2021/09/28 10:56:53;;;;;;;4.10;1.40;;;;;;;16.55;73.90;97238.56;5047057;28;20446;-65
2021/09/28 10:59:59;;;;;;;8.38;1.85;;;;;;;16.90;71.63;97242.56;5060330;28;20044;-62
2021/09/28 11:03:00;;;;;;;5.43;1.60;;;;;;;17.01;72.52;97221.19;5055119;28;20040;-64
2021/09/28 11:05:56;;;;;;;2.72;1.25;;;;;;;16.53;75.20;97225.13;5056123;28;20048;-63
2021/09/28 11:08:42;;;;;;;2.60;1.40;;;;;;;16.35;74.67;97216.00;5034402;28;20045;-63
2021/09/28 11:11:29;;;;;;;4.43;2.00;;;;;;;16.02;75.74;97220.66;5030985;28;20045;-61
2021/09/28 11:14:15;;;;;;;2.60;1.55;;;;;;;16.16;76.32;97206.09;5022681;28;20135;-62
2021/09/28 11:17:01;;;;;;;3.35;1.50;;;;;;;16.41;75.19;97204.16;5033804;28;20053;-62
2021/09/28 11:19:47;;;;;;;6.07;1.90;;;;;;;16.12;76.68;97192.28;5035661;28;20073;-63
2021/09/28 11:22:33;;;;;;;3.20;1.70;;;;;;;16.39;75.48;97186.41;5039897;28;20134;-63
2021/09/28 11:25:18;;;;;;;4.85;1.58;;;;;;;16.82;73.15;97195.50;5029930;28;20081;-63
2021/09/28 11:28:04;;;;;;;3.53;1.33;;;;;;;17.15;72.15;97189.97;5051938;28;20063;-61
2021/09/28 11:30:57;;;;;;;4.60;1.73;;;;;;;16.96;74.60;97189.19;5055606;28;20087;-63
2021/09/28 11:33:45;;;;;;;3.22;1.50;;;;;;;17.43;70.62;97188.31;5012077;28;20049;-63
2021/09/28 11:36:34;;;;;;;5.65;1.55;;;;;;;17.47;70.86;97180.78;5014866;28;20029;-64
2021/09/28 11:39:20;;;;;;;7.78;1.42;;;;;;;17.22;71.70;97183.63;5021417;28;20715;-62
2021/09/28 11:42:06;;;;;;;2.47;1.00;;;;;;;16.80;75.30;97172.19;5041742;28;20414;-60
2021/09/28 11:44:52;;;;;;;2.40;1.30;;;;;;;16.44;75.29;97159.16;5057367;28;20040;-63
2021/09/28 11:47:41;;;;;;;2.28;1.17;;;;;;;16.34;77.12;97159.94;5054037;28;20481;-63
2021/09/28 11:50:26;;;;;;;4.15;1.30;;;;;;;16.23;77.31;97150.84;5049828;28;20040;-63
2021/09/28 11:53:14;;;;;;;5.35;1.50;;;;;;;16.56;75.99;97144.13;5032571;28;20052;-64
2021/09/28 11:56:00;;;;;;;2.53;1.20;;;;;;;17.05;74.10;97139.00;5033277;28;20472;-62
2021/09/28 11:58:48;;;;;;;8.00;3.75;;;;;;;16.87;74.20;97132.69;5033783;28;20056;-65
2021/09/28 12:01:34;;;;;;;5.13;1.40;;;;;;;17.54;73.55;97140.00;5049309;28;20040;-64
2021/09/28 12:10:21;;;;;;;4.43;1.45;;;;;;;17.30;72.75;97127.81;5042246;28;20135;-62
2021/09/28 12:13:24;;;;;;;3.58;1.52;;;;;;;16.93;72.46;97112.53;5029245;28;20041;-63
2021/09/28 12:16:12;;;;;;;3.55;1.60;;;;;;;16.38;75.06;97113.72;5020370;28;20052;-64
2021/09/28 12:19:05;;;;;;;4.15;1.27;;;;;;;16.96;74.04;97119.22;5034753;28;20041;-64
2021/09/28 12:21:51;;;;;;;3.33;1.55;;;;;;;16.77;74.53;97117.66;5033421;28;20052;-62
2021/09/28 12:24:45;;;;;;;3.20;1.40;;;;;;;16.90;74.40;97116.06;5031846;28;20143;-64
2021/09/28 12:27:32;;;;;;;3.22;1.88;;;;;;;17.50;73.96;97111.56;5015988;28;20053;-64
2021/09/28 12:30:18;;;;;;;4.38;1.35;;;;;;;17.38;72.51;97112.78;5013274;28;20041;-63
2021/09/28 12:33:05;;;;;;;4.38;1.63;;;;;;;17.31;72.56;97110.03;5012328;28;20038;-61
2021/09/28 12:35:54;;;;;;;7.82;1.70;;;;;;;17.18;72.72;97111.66;5035396;28;20152;-61
2021/09/28 12:38:39;;;;;;;5.07;1.75;;;;;;;17.26;71.44;97104.13;5054743;28;20553;-63
2021/09/28 12:41:25;;;;;;;4.05;1.27;;;;;;;17.48;69.93;97097.28;5036077;28;20159;-63
2021/09/28 12:44:21;;;;;;;2.88;1.20;;;;;;;17.14;71.68;97097.84;5023907;28;20056;-63
2021/09/28 12:47:55;;;;;;;4.93;1.85;;;;;;;16.88;73.35;97082.50;5055609;28;20512;-66
2021/09/28 12:50:42;;;;;;;4.88;2.55;;;;;;;17.40;70.26;97079.16;4977399;28;20042;-64
2021/09/28 12:53:29;;;;;;;2.50;1.40;;;;;;;17.11;72.83;97078.47;4959381;28;20046;-64
2021/09/28 12:56:15;;;;;;;4.75;1.75;;;;;;;16.94;72.15;97094.75;5031806;28;20070;-62
2021/09/28 12:59:01;;;;;;;2.33;1.30;;;;;;;16.92;72.19;97088.78;5036003;28;20075;-64
2021/09/28 13:01:50;;;;;;;2.70;1.75;;;;;;;17.09;71.37;97080.88;5038798;28;20522;-63
2021/09/28 13:04:36;;;;;;;4.70;1.95;;;;;;;17.26;71.38;97077.22;5018377;28;20076;-63
2021/09/28 13:07:22;;;;;;;3.92;1.58;;;;;;;16.96;71.27;97073.00;5033162;28;20160;-63
2021/09/28 13:10:08;;;;;;;6.10;2.00;;;;;;;16.57;72.81;97073.03;5042049;28;20052;-62